Airfield :







YOU CAN JOIN US ON...

 
LOGIN :

Register | Disclaimer

   EN    FR    IT 

 









Legend :    VFR   Marginal VFR   IFR   Intensive IFR   Very Intensive IFR
Visi :
Ceiling :
>= 8 km
>= 3000ft
5 to 8 km
1000 to 3000 ft
1500m to 5 km
500 to 1000 ft
800 to 1500m
200 to 500 ft
< 800m
< 200 ft
Symbols :   Thunderstorms  Fog  Heavy snow  Heavy precipitations  Wind > 20 kt






- Airport Elevation : 586 ft
- IATA code : YRJ


CYRJ - Roberval

CURRENT METAR :
  • 191700Z 29016G24KT 260V320 25SM BKN038 M13/M21 A3000 RMK SC6 SLP173

EXPIRED METARs :
  • 191600Z 29016G25KT 25SM DRSN SCT037 SCT100 M13/M21 A2999 RMK SC4AC1 AC TR SLP170
  • 191500Z 30017G28KT 25SM FEW032 BKN110 M13/M20 A2995 RMK SC1AC6 SLP156

TAF TAF CYRJ
Valid from the 19 at 13:00 until the 20 at 01:00 UTC


191238Z 1913/2001 28015G25KT P6SM FEW030 OVC070
TEMPO 1913/1924 4SM -SN BLSN OVC040
BECMG 1913/1915 30015G25KT
FM200000 31012G22KT P6SM SCT030
TEMPO 2000/2001 BKN030 RMK NXT FCST BY 192000Z



MET'MAP, your aeronautical weather chart ! - Copyright ORBIFLY December 2007 - Disclaimer

ORBIFLY MET'MAP TEAM :

Programming & Development : Alexandra Zaïnal
Concept & original design : Baudouin d'Aumeries
Assistance for programming : Marc-Olivier Méhu
Technical & hardware support : Manuel Goepfert

Contact : metmap@orbifly.com




SOURCES & CREDITS :

   NOAA